Time;durP1;ratioP1;P1;durP2;ratioP2;P2;SDS_P1;SDS_P2;PMS_P1;PMS_P2;Temp;Humidity;BMP_temperature;BMP_pressure;BME280_temperature;BME280_humidity;BME280_pressure;Samples;Min_cycle;Max_cycle;Signal;HPM_P1;HPM_P2
2022/08/18 00:01:25;;;;;;;120.03;49.28;;;;;;;15.37;100.00;101313.88;5203972;28;20056;-72
2022/08/18 00:03:55;;;;;;;106.57;46.00;;;;;;;15.35;100.00;101320.47;5189458;28;20053;-72
2022/08/18 00:06:27;;;;;;;103.22;45.92;;;;;;;15.32;100.00;101310.88;5203533;28;20028;-72
2022/08/18 00:09:00;;;;;;;106.90;45.20;;;;;;;15.32;100.00;101324.41;5203811;28;20463;-72
2022/08/18 00:11:35;;;;;;;112.70;47.70;;;;;;;15.28;100.00;101321.22;5203762;28;20025;-72
2022/08/18 00:14:07;;;;;;;111.68;47.60;;;;;;;15.26;100.00;101317.88;5203336;28;20125;-72
2022/08/18 00:16:37;;;;;;;114.07;46.42;;;;;;;15.25;100.00;101321.56;5203315;28;20100;-72
2022/08/18 00:19:08;;;;;;;105.03;45.30;;;;;;;15.23;100.00;101315.53;5203746;28;20113;-72
2022/08/18 00:21:39;;;;;;;94.68;42.83;;;;;;;15.23;100.00;101312.00;5203578;28;20394;-72
2022/08/18 00:24:09;;;;;;;65.35;31.00;;;;;;;15.23;100.00;101309.28;5202686;28;20025;-71
2022/08/18 00:26:40;;;;;;;82.70;38.85;;;;;;;15.21;100.00;101311.31;5203527;28;20022;-73
2022/08/18 00:29:10;;;;;;;99.45;41.13;;;;;;;15.21;100.00;101320.28;5203506;28;20431;-71
2022/08/18 00:31:41;;;;;;;106.38;41.80;;;;;;;15.19;100.00;101311.50;5190260;28;20037;-72
2022/08/18 00:34:11;;;;;;;89.32;37.85;;;;;;;15.10;100.00;101303.69;5202778;28;20021;-72
2022/08/18 00:36:42;;;;;;;101.38;43.53;;;;;;;15.03;100.00;101304.41;5201698;28;20033;-71
2022/08/18 00:39:13;;;;;;;110.13;45.38;;;;;;;15.03;100.00;101301.72;5203295;28;20381;-72
2022/08/18 00:41:43;;;;;;;122.25;51.03;;;;;;;15.03;100.00;101315.22;5203147;28;20025;-72
2022/08/18 00:44:15;;;;;;;93.43;41.65;;;;;;;15.04;100.00;101321.47;5202871;28;20017;-71
2022/08/18 00:46:45;;;;;;;98.38;43.33;;;;;;;15.05;100.00;101322.31;5203098;28;20075;-71
2022/08/18 00:49:17;;;;;;;124.78;50.20;;;;;;;15.05;100.00;101320.44;5201169;28;20025;-71
2022/08/18 00:51:50;;;;;;;127.07;51.67;;;;;;;15.06;100.00;101316.75;5203187;28;20021;-72
2022/08/18 00:54:28;;;;;;;90.85;38.95;;;;;;;15.08;100.00;101322.78;5201868;28;20029;-71
2022/08/18 00:57:02;;;;;;;346.48;48.88;;;;;;;15.07;100.00;101317.56;5203166;28;20053;-71
2022/08/18 00:59:41;;;;;;;504.35;52.05;;;;;;;15.08;100.00;101314.69;5202555;28;20112;-70
2022/08/18 01:02:18;;;;;;;328.08;52.00;;;;;;;15.10;100.00;101318.03;5203310;28;20029;-72
2022/08/18 01:04:56;;;;;;;344.75;58.35;;;;;;;15.10;100.00;101326.13;5192612;28;20025;-71
2022/08/18 01:07:34;;;;;;;167.18;58.28;;;;;;;15.15;100.00;101323.72;5203773;28;20422;-72
2022/08/18 01:10:16;;;;;;;151.35;57.83;;;;;;;15.22;100.00;101321.97;5202259;28;20029;-73
2022/08/18 01:12:54;;;;;;;138.20;52.17;;;;;;;15.29;100.00;101317.47;5203589;28;20030;-72
2022/08/18 01:15:26;;;;;;;148.23;53.65;;;;;;;15.35;100.00;101318.59;5202675;28;20061;-72
2022/08/18 01:24:02;;;;;;;132.98;51.03;;;;;;;15.39;100.00;101325.31;5203208;28;20038;-72
2022/08/18 01:26:38;;;;;;;152.05;48.58;;;;;;;15.33;100.00;101327.94;5202444;28;20037;-71
2022/08/18 01:29:10;;;;;;;174.48;58.75;;;;;;;15.29;100.00;101328.28;5203023;28;20034;-71
2022/08/18 01:31:53;;;;;;;317.63;76.75;;;;;;;15.33;100.00;101330.66;5203129;28;20487;-72
2022/08/18 01:34:26;;;;;;;196.15;67.88;;;;;;;15.39;100.00;101333.44;5202408;28;20033;-72
2022/08/18 01:36:57;;;;;;;210.82;69.55;;;;;;;15.44;100.00;101336.41;5203815;28;20483;-72
2022/08/18 01:39:27;;;;;;;177.55;60.33;;;;;;;15.48;100.00;101345.00;5202627;28;20033;-72
2022/08/18 01:41:58;;;;;;;167.95;61.03;;;;;;;15.46;100.00;101339.78;5203085;28;20112;-72
2022/08/18 01:44:29;;;;;;;159.90;58.20;;;;;;;15.47;100.00;101337.91;5202267;28;20109;-72
2022/08/18 01:46:59;;;;;;;190.00;63.33;;;;;;;15.49;100.00;101352.09;5201468;28;20025;-72
2022/08/18 01:49:30;;;;;;;173.32;61.25;;;;;;;15.54;100.00;101352.34;5201748;28;20141;-72
2022/08/18 01:52:00;;;;;;;190.23;66.85;;;;;;;15.62;100.00;101351.44;5202587;28;20029;-72
2022/08/18 01:54:32;;;;;;;197.65;66.47;;;;;;;15.67;100.00;101349.88;5202249;28;20109;-73
2022/08/18 01:57:04;;;;;;;178.82;65.10;;;;;;;15.74;100.00;101350.78;5202770;28;20049;-73
2022/08/18 01:59:34;;;;;;;190.85;66.28;;;;;;;15.80;100.00;101349.19;5202771;28;20075;-73
2022/08/18 02:02:05;;;;;;;206.40;68.80;;;;;;;15.85;100.00;101348.63;5202376;28;20033;-73
2022/08/18 02:04:36;;;;;;;194.25;67.93;;;;;;;15.88;100.00;101359.09;5197937;28;20026;-72
2022/08/18 02:07:11;;;;;;;192.50;65.93;;;;;;;15.91;100.00;101356.84;5205056;28;20109;-72
2022/08/18 02:09:42;;;;;;;212.20;71.20;;;;;;;15.97;100.00;101360.69;5206500;28;20025;-72
2022/08/18 02:12:13;;;;;;;212.52;70.13;;;;;;;16.00;100.00;101354.88;5206453;28;20032;-72
2022/08/18 02:14:44;;;;;;;197.40;68.93;;;;;;;16.00;100.00;101360.28;5205202;28;20033;-73
2022/08/18 02:17:14;;;;;;;196.68;67.18;;;;;;;16.01;100.00;101365.53;5206021;28;20036;-73
2022/08/18 02:19:46;;;;;;;164.77;60.25;;;;;;;16.03;100.00;101355.34;5206028;28;20442;-73
2022/08/18 02:22:20;;;;;;;154.75;55.53;;;;;;;16.08;100.00;101352.06;5206311;28;20447;-73
2022/08/18 02:24:50;;;;;;;156.38;59.58;;;;;;;16.11;100.00;101350.81;5205534;28;20053;-73
2022/08/18 02:27:21;;;;;;;182.80;63.53;;;;;;;16.19;100.00;101353.44;5206222;28;20056;-73
2022/08/18 02:29:51;;;;;;;181.63;63.63;;;;;;;16.18;100.00;101354.47;5205873;28;20031;-73
2022/08/18 02:32:22;;;;;;;200.38;66.60;;;;;;;16.17;100.00;101350.09;5206453;28;20491;-72
2022/08/18 02:34:52;;;;;;;175.73;63.85;;;;;;;16.16;100.00;101349.22;5205065;28;20025;-73
2022/08/18 02:37:23;;;;;;;183.68;65.35;;;;;;;16.17;100.00;101350.94;5206178;28;20021;-72
2022/08/18 02:39:53;;;;;;;181.90;65.55;;;;;;;16.16;100.00;101351.94;5207621;28;20033;-73
2022/08/18 02:42:24;;;;;;;212.00;66.95;;;;;;;16.20;100.00;101350.53;5206247;28;20186;-73
2022/08/18 02:44:55;;;;;;;201.10;69.20;;;;;;;16.23;100.00;101352.03;5205430;28;20523;-72
2022/08/18 02:47:25;;;;;;;183.73;68.03;;;;;;;16.24;100.00;101359.13;5204950;28;20382;-72
2022/08/18 02:49:56;;;;;;;183.00;67.65;;;;;;;16.25;100.00;101353.50;5205139;28;20031;-73
2022/08/18 02:52:31;;;;;;;179.70;64.00;;;;;;;16.29;100.00;101343.13;5205748;28;20025;-72
2022/08/18 02:55:02;;;;;;;202.55;69.53;;;;;;;16.32;100.00;101359.00;5205115;28;20079;-71
2022/08/18 02:57:33;;;;;;;209.38;68.47;;;;;;;16.33;100.00;101352.56;5205692;28;20491;-71
2022/08/18 03:00:04;;;;;;;202.30;69.35;;;;;;;16.35;100.00;101345.06;5205676;28;20048;-71
2022/08/18 03:02:35;;;;;;;239.48;71.95;;;;;;;16.35;100.00;101342.34;5203403;28;20028;-71
2022/08/18 03:05:06;;;;;;;173.32;65.72;;;;;;;16.34;100.00;101345.28;5195964;28;20025;-71
2022/08/18 03:07:36;;;;;;;149.73;59.00;;;;;;;16.33;100.00;101343.59;5205092;28;20049;-71
2022/08/18 03:10:07;;;;;;;180.95;65.75;;;;;;;16.31;100.00;101341.06;5205238;28;20036;-71
2022/08/18 03:12:37;;;;;;;195.68;65.40;;;;;;;16.27;100.00;101337.91;5205321;28;20029;-71
2022/08/18 03:15:08;;;;;;;180.75;65.30;;;;;;;16.21;100.00;101349.50;5203727;28;20025;-70
2022/08/18 03:17:39;;;;;;;172.43;65.57;;;;;;;16.18;100.00;101349.06;5204637;28;20106;-70
2022/08/18 03:20:10;;;;;;;184.52;66.05;;;;;;;16.15;100.00;101352.97;5204795;28;20037;-70
2022/08/18 03:22:40;;;;;;;156.68;62.33;;;;;;;16.15;100.00;101350.25;5204935;28;20025;-71
2022/08/18 03:25:10;;;;;;;294.00;69.57;;;;;;;16.16;100.00;101343.81;5204788;28;20067;-70
2022/08/18 03:27:41;;;;;;;192.30;66.90;;;;;;;16.16;100.00;101346.50;5204604;28;20167;-70
2022/08/18 03:30:11;;;;;;;205.50;68.47;;;;;;;16.18;100.00;101339.06;5204874;28;20490;-70
2022/08/18 03:32:42;;;;;;;208.57;69.50;;;;;;;16.22;100.00;101347.66;5204969;28;20037;-70
2022/08/18 03:35:13;;;;;;;195.60;66.63;;;;;;;16.22;100.00;101347.66;5203802;28;20391;-70
2022/08/18 03:37:44;;;;;;;204.52;70.57;;;;;;;16.25;100.00;101339.13;5204688;28;20033;-70
2022/08/18 03:40:14;;;;;;;222.82;69.40;;;;;;;16.28;100.00;101336.03;5204051;28;20037;-70
2022/08/18 03:42:44;;;;;;;174.70;64.25;;;;;;;16.29;100.00;101335.00;5204639;28;20018;-70
2022/08/18 03:45:15;;;;;;;204.27;70.95;;;;;;;16.30;100.00;101336.69;5204093;28;20024;-70
2022/08/18 03:47:46;;;;;;;206.80;68.97;;;;;;;16.29;100.00;101345.84;5202332;28;20049;-70
2022/08/18 03:50:18;;;;;;;274.83;70.07;;;;;;;16.28;100.00;101341.47;5204434;28;20483;-70
2022/08/18 03:52:48;;;;;;;248.88;71.45;;;;;;;16.28;100.00;101346.88;5204007;28;20037;-70
2022/08/18 03:55:19;;;;;;;367.35;76.63;;;;;;;16.25;100.00;101341.84;5203491;28;20030;-70
2022/08/18 03:57:51;;;;;;;250.40;69.90;;;;;;;16.21;100.00;101346.78;5204247;28;20047;-71
2022/08/18 04:00:22;;;;;;;199.65;68.93;;;;;;;16.20;100.00;101347.81;5204712;28;20036;-70
2022/08/18 04:02:52;;;;;;;219.45;69.45;;;;;;;16.21;100.00;101346.78;5199849;28;20030;-70
2022/08/18 04:05:23;;;;;;;323.08;75.22;;;;;;;16.22;100.00;101348.47;5196985;28;20108;-71
2022/08/18 04:07:55;;;;;;;300.33;72.97;;;;;;;16.23;100.00;101349.31;5204337;28;20033;-71
2022/08/18 04:10:26;;;;;;;201.88;70.40;;;;;;;16.22;100.00;101353.06;5204193;28;20082;-71
2022/08/18 04:12:57;;;;;;;245.90;70.10;;;;;;;16.21;100.00;101346.78;5204122;28;20108;-71
2022/08/18 04:15:27;;;;;;;224.82;70.88;;;;;;;16.21;100.00;101345.94;5202821;28;20032;-71
2022/08/18 04:18:02;;;;;;;244.75;71.60;;;;;;;16.21;100.00;101345.94;5203960;28;20479;-71
2022/08/18 04:20:34;;;;;;;265.80;70.72;;;;;;;16.20;100.00;101344.28;5204372;28;20095;-71
2022/08/18 04:23:04;;;;;;;287.63;68.47;;;;;;;16.16;100.00;101341.09;5203921;28;20025;-71
2022/08/18 04:25:35;;;;;;;291.02;69.63;;;;;;;16.11;100.00;101350.81;5194207;28;20122;-71
2022/08/18 04:28:06;;;;;;;343.73;67.90;;;;;;;16.05;100.00;101352.44;5200442;28;20033;-71
2022/08/18 04:30:36;;;;;;;254.00;71.47;;;;;;;16.00;100.00;101349.44;5201200;28;20025;-71
2022/08/18 04:33:07;;;;;;;242.55;74.35;;;;;;;15.98;100.00;101349.66;5204009;28;20029;-71
2022/08/18 04:35:37;;;;;;;222.80;73.00;;;;;;;16.00;100.00;101360.28;5201850;28;20060;-71
2022/08/18 04:38:08;;;;;;;206.50;67.40;;;;;;;16.02;100.00;101355.53;5203592;28;20152;-71
2022/08/18 04:40:40;;;;;;;221.52;64.20;;;;;;;16.02;100.00;101359.06;5203087;28;20040;-71
2022/08/18 04:43:14;;;;;;;182.63;59.45;;;;;;;16.07;100.00;101365.78;5194891;28;20025;-70
2022/08/18 04:45:44;;;;;;;264.75;63.90;;;;;;;16.04;100.00;101361.59;5201334;28;20025;-71
2022/08/18 04:48:15;;;;;;;196.07;58.25;;;;;;;16.04;100.00;101362.41;5203478;28;20482;-71
2022/08/18 04:50:46;;;;;;;212.38;64.65;;;;;;;16.03;100.00;101370.72;5203067;28;20467;-71
2022/08/18 04:56:05;;;;;;;165.82;57.40;;;;;;;16.00;100.00;101377.34;5202615;28;20116;-71
2022/08/18 04:58:36;;;;;;;141.52;53.80;;;;;;;16.00;100.00;101379.22;5203260;28;20108;-71
2022/08/18 05:01:08;;;;;;;182.02;58.22;;;;;;;15.99;100.00;101380.25;5199036;28;20037;-71
2022/08/18 05:03:40;;;;;;;176.90;60.70;;;;;;;16.00;100.00;101376.50;5203144;28;20479;-70
2022/08/18 05:06:10;;;;;;;178.80;60.38;;;;;;;16.01;100.00;101376.34;5203142;28;20033;-70
2022/08/18 05:08:41;;;;;;;223.20;64.70;;;;;;;16.04;100.00;101384.06;5203273;28;20449;-71
2022/08/18 05:11:11;;;;;;;176.00;59.20;;;;;;;16.07;100.00;101388.28;5203182;28;20030;-71
2022/08/18 05:13:42;;;;;;;236.10;62.88;;;;;;;16.08;100.00;101383.72;5202425;28;20112;-71
2022/08/18 05:16:13;;;;;;;205.75;59.05;;;;;;;16.09;100.00;101391.63;5202493;28;20038;-71
2022/08/18 05:18:44;;;;;;;384.13;64.63;;;;;;;16.11;100.00;101388.72;5203253;28;20030;-71
2022/08/18 05:21:15;;;;;;;354.80;67.50;;;;;;;16.14;100.00;101388.34;5203465;28;20447;-70
2022/08/18 05:23:48;;;;;;;226.10;63.88;;;;;;;16.16;100.00;101394.41;5203122;28;20033;-71
2022/08/18 05:26:18;;;;;;;172.20;60.03;;;;;;;16.16;100.00;101387.13;5202776;28;20087;-71
2022/08/18 05:28:49;;;;;;;158.00;60.05;;;;;;;16.18;100.00;101389.66;5202952;28;20033;-71
2022/08/18 05:31:22;;;;;;;210.55;59.95;;;;;;;16.21;100.00;101387.38;5203095;28;20040;-71
2022/08/18 05:33:54;;;;;;;324.70;65.68;;;;;;;16.26;100.00;101386.81;5203080;28;20025;-71
2022/08/18 05:36:56;;;;;;;175.18;58.80;;;;;;;16.30;100.00;101388.97;5202336;28;20038;-71
2022/08/18 05:39:34;;;;;;;166.52;60.58;;;;;;;16.42;100.00;101393.91;5203200;28;20132;-70
2022/08/18 05:42:24;;;;;;;157.30;57.85;;;;;;;16.50;100.00;101383.75;5205777;28;20025;-71
2022/08/18 05:44:55;;;;;;;169.95;58.17;;;;;;;16.54;100.00;101390.47;5193329;28;20024;-71
2022/08/18 05:47:30;;;;;;;188.50;59.50;;;;;;;16.58;100.00;101389.06;5206772;28;20026;-71
2022/08/18 05:50:19;;;;;;;140.00;57.20;;;;;;;16.65;100.00;101391.00;5206870;28;20026;-71
2022/08/18 05:53:06;;;;;;;142.73;56.88;;;;;;;16.69;100.00;101395.00;5206584;28;20326;-71
2022/08/18 05:58:49;;;;;;;127.07;53.50;;;;;;;16.88;100.00;101401.69;5206722;28;20479;-71
2022/08/18 06:01:26;;;;;;;135.10;53.40;;;;;;;16.97;100.00;101395.94;5188555;28;20484;-71
2022/08/18 06:04:03;;;;;;;112.07;50.90;;;;;;;17.08;100.00;101400.00;5203191;28;20029;-71
2022/08/18 06:06:36;;;;;;;94.60;48.40;;;;;;;17.05;100.00;101392.25;5206361;28;20368;-71
2022/08/18 06:09:21;;;;;;;103.30;50.78;;;;;;;17.02;100.00;101393.47;5206267;28;20048;-70
2022/08/18 06:11:57;;;;;;;102.03;49.53;;;;;;;17.07;100.00;101395.63;5205153;28;20116;-71
2022/08/18 06:14:28;;;;;;;105.03;50.15;;;;;;;17.15;100.00;101395.44;5205368;28;20036;-71
2022/08/18 06:17:14;;;;;;;114.55;51.83;;;;;;;17.16;100.00;101399.84;5206323;28;20546;-71
2022/08/18 06:20:01;;;;;;;164.40;54.78;;;;;;;17.23;100.00;101403.47;5205022;28;20379;-71
2022/08/18 06:23:09;;;;;;;138.02;52.70;;;;;;;17.36;100.00;101400.00;5206066;28;20116;-71
2022/08/18 06:26:09;;;;;;;101.53;48.80;;;;;;;17.42;100.00;101401.94;5205918;28;20033;-71
2022/08/18 06:29:12;;;;;;;106.45;49.67;;;;;;;17.50;100.00;101412.63;5205754;28;20029;-71
2022/08/18 06:32:17;;;;;;;121.45;53.03;;;;;;;17.65;100.00;101409.78;5206211;28;20047;-70
2022/08/18 06:35:24;;;;;;;114.03;51.72;;;;;;;17.77;100.00;101423.66;5195290;28;20075;-71
2022/08/18 06:41:28;;;;;;;110.78;52.63;;;;;;;17.83;100.00;101407.44;5205863;28;20059;-71
2022/08/18 06:44:15;;;;;;;100.05;47.05;;;;;;;17.93;100.00;101411.66;5205637;28;20433;-71
2022/08/18 06:47:03;;;;;;;105.15;51.13;;;;;;;18.01;100.00;101414.19;5206048;28;20032;-71
2022/08/18 06:49:39;;;;;;;92.30;47.13;;;;;;;18.20;100.00;101418.03;5205301;28;20108;-71
2022/08/18 06:52:28;;;;;;;;;;;;;;;18.29;100.00;101420.38;5205357;28;20513;-71
2022/08/18 06:55:04;;;;;;;103.57;49.97;;;;;;;18.23;100.00;101421.19;5204612;28;20279;-71
2022/08/18 06:57:38;;;;;;;98.97;49.38;;;;;;;18.27;100.00;101421.63;5205435;28;20029;-71
2022/08/18 07:00:24;;;;;;;83.60;43.97;;;;;;;18.31;100.00;101420.19;5204936;28;20542;-71
2022/08/18 07:02:59;;;;;;;79.50;44.85;;;;;;;18.35;100.00;101418.72;5205421;28;20025;-71
2022/08/18 07:05:31;;;;;;;;;;;;;;;18.38;100.00;101412.91;5205608;28;20013;-71
2022/08/18 07:08:28;;;;;;;91.22;45.78;;;;;;;18.47;100.00;101414.38;5205387;28;20351;-71
2022/08/18 07:11:19;;;;;;;90.90;48.08;;;;;;;18.59;100.00;101422.78;5205235;28;20021;-71
2022/08/18 07:13:52;;;;;;;91.65;48.08;;;;;;;18.69;100.00;101417.81;5205509;28;20025;-71
2022/08/18 07:16:29;;;;;;;84.22;45.30;;;;;;;18.76;100.00;101417.81;5204587;28;20563;-71
2022/08/18 07:19:19;;;;;;;91.85;45.80;;;;;;;18.85;100.00;101417.41;5204674;28;20029;-71
2022/08/18 07:22:04;;;;;;;87.57;44.42;;;;;;;18.88;100.00;101413.47;5204021;28;20025;-71
2022/08/18 07:24:49;;;;;;;87.32;44.42;;;;;;;19.02;100.00;101415.13;5204490;28;20029;-71
2022/08/18 07:27:22;;;;;;;78.68;45.13;;;;;;;19.21;100.00;101420.78;5204346;28;20029;-71
2022/08/18 07:30:13;;;;;;;79.15;43.78;;;;;;;19.46;100.00;101426.44;5204864;28;20033;-71
2022/08/18 07:33:08;;;;;;;70.93;40.67;;;;;;;19.65;100.00;101425.59;5192081;28;20025;-71
2022/08/18 07:35:48;;;;;;;67.07;39.90;;;;;;;20.02;100.00;101417.75;5203582;28;20057;-71
2022/08/18 07:38:23;;;;;;;65.88;39.95;;;;;;;20.57;100.00;101419.00;5204705;28;20029;-71
2022/08/18 07:41:01;;;;;;;60.35;37.03;;;;;;;20.91;100.00;101408.72;5196669;28;20042;-71
2022/08/18 07:43:51;;;;;;;60.75;36.72;;;;;;;21.09;100.00;101402.50;5200317;28;20037;-71
2022/08/18 07:46:39;;;;;;;56.70;34.47;;;;;;;21.34;100.00;101403.38;5204277;28;20026;-71
2022/08/18 07:49:18;;;;;;;47.45;29.92;;;;;;;21.44;100.00;101406.41;5193618;28;20026;-71
2022/08/18 07:51:48;;;;;;;48.95;30.80;;;;;;;21.44;100.00;101414.59;5204578;28;20557;-71
2022/08/18 07:54:36;;;;;;;42.53;27.30;;;;;;;21.68;100.00;101403.84;5203177;28;20033;-71
2022/08/18 07:57:20;;;;;;;45.35;30.15;;;;;;;22.25;100.00;101407.22;5204267;28;20028;-71
2022/08/18 07:59:56;;;;;;;37.88;25.85;;;;;;;23.00;100.00;101418.56;5204143;28;20030;-71
2022/08/18 08:02:32;;;;;;;41.67;26.77;;;;;;;23.44;100.00;101410.88;5204179;28;20017;-71
2022/08/18 08:05:38;;;;;;;36.72;24.33;;;;;;;23.81;100.00;101409.81;5203645;28;20038;-70
2022/08/18 08:08:14;;;;;;;32.58;23.83;;;;;;;24.44;100.00;101411.69;5204559;28;20373;-71
2022/08/18 08:11:03;;;;;;;31.52;20.05;;;;;;;25.16;100.00;101405.59;5202594;28;20029;-71
2022/08/18 08:14:10;;;;;;;29.77;21.23;;;;;;;25.67;100.00;101400.88;5204182;28;20019;-71
2022/08/18 08:17:17;;;;;;;28.77;19.90;;;;;;;25.99;100.00;101404.63;5192594;28;20091;-71
2022/08/18 08:20:01;;;;;;;28.92;20.55;;;;;;;26.12;100.00;101406.19;5191376;28;20030;-72
2022/08/18 08:22:59;;;;;;;30.40;20.48;;;;;;;25.70;100.00;101400.34;5204090;28;20510;-71
2022/08/18 08:25:52;;;;;;;25.63;17.77;;;;;;;25.17;100.00;101404.53;5202902;28;20029;-71
2022/08/18 08:28:42;;;;;;;25.42;17.98;;;;;;;24.84;100.00;101408.03;5203633;28;20020;-71
2022/08/18 08:31:36;;;;;;;30.23;19.15;;;;;;;24.42;100.00;101409.19;5204089;28;20091;-71
2022/08/18 08:34:15;;;;;;;30.90;19.48;;;;;;;24.60;100.00;101423.78;5202869;28;20052;-72
2022/08/18 08:36:46;;;;;;;25.92;19.00;;;;;;;24.52;100.00;101420.38;5203654;28;20509;-71
2022/08/18 08:39:21;;;;;;;27.50;18.25;;;;;;;24.43;100.00;101418.25;5203587;28;20029;-71
2022/08/18 08:41:59;;;;;;;29.15;18.35;;;;;;;24.45;100.00;101413.34;5203440;28;20060;-71
2022/08/18 08:45:03;;;;;;;21.33;15.05;;;;;;;25.54;100.00;101419.38;5202978;28;20118;-71
2022/08/18 08:47:42;;;;;;;28.58;16.50;;;;;;;26.04;100.00;101414.84;5191986;28;20040;-72
2022/08/18 08:50:18;;;;;;;21.67;15.90;;;;;;;26.39;100.00;101413.63;5203375;28;20017;-72
2022/08/18 08:52:53;;;;;;;19.17;14.88;;;;;;;26.91;100.00;101413.06;5203281;28;20021;-72
2022/08/18 08:55:28;;;;;;;20.75;14.88;;;;;;;27.39;100.00;101414.88;5202560;28;20034;-71
2022/08/18 08:58:06;;;;;;;18.63;13.55;;;;;;;28.05;100.00;101419.97;5203289;28;20031;-72
2022/08/18 09:00:39;;;;;;;22.92;13.70;;;;;;;28.31;100.00;101412.59;5203312;28;20033;-72
2022/08/18 09:03:25;;;;;;;17.08;12.80;;;;;;;28.49;100.00;101425.94;5201792;28;20030;-72
2022/08/18 09:06:33;;;;;;;17.60;9.60;;;;;;;29.16;100.00;101421.34;5202808;28;20480;-72
2022/08/18 09:09:31;;;;;;;8.82;4.82;;;;;;;29.09;100.00;101423.56;5202500;28;20153;-72
2022/08/18 09:12:35;;;;;;;13.88;8.27;;;;;;;28.84;100.00;101419.66;5203278;28;20434;-72
2022/08/18 09:15:22;;;;;;;9.82;7.05;;;;;;;28.38;100.00;101418.75;5201432;28;20036;-72
2022/08/18 09:18:00;;;;;;;9.02;6.50;;;;;;;28.71;100.00;101411.91;5207126;28;20495;-72
2022/08/18 09:20:39;;;;;;;14.43;9.95;;;;;;;28.63;100.00;101415.22;5207249;28;20087;-72
2022/08/18 09:23:16;;;;;;;11.73;7.68;;;;;;;28.98;100.00;101408.13;5207208;28;20033;-72
2022/08/18 09:25:51;;;;;;;20.30;10.38;;;;;;;28.65;100.00;101410.25;5205138;28;20033;-72
2022/08/18 09:28:41;;;;;;;;;;;;;;;28.65;100.00;101402.78;5207526;28;20025;-72
2022/08/18 09:31:16;;;;;;;12.48;8.40;;;;;;;28.29;100.00;101401.03;5194927;28;20406;-72
2022/08/18 09:34:11;;;;;;;12.45;6.90;;;;;;;27.17;100.00;101400.41;5206979;28;20133;-72
2022/08/18 09:36:59;;;;;;;11.93;7.28;;;;;;;26.57;100.00;101397.63;5207109;28;20030;-72
2022/08/18 09:43:05;;;;;;;9.82;7.97;;;;;;;26.54;100.00;101406.41;5197391;28;20112;-72
2022/08/18 09:45:52;;;;;;;13.40;8.10;;;;;;;26.58;100.00;101412.22;5206337;28;20079;-72
2022/08/18 09:48:28;;;;;;;10.43;8.23;;;;;;;26.94;100.00;101407.88;5206938;28;20024;-72
2022/08/18 09:51:22;;;;;;;14.07;7.05;;;;;;;27.69;100.00;101410.66;5206624;28;20068;-72
2022/08/18 09:54:06;;;;;;;17.85;7.00;;;;;;;28.06;100.00;101410.59;5206762;28;20045;-72
2022/08/18 09:56:48;;;;;;;6.10;4.18;;;;;;;28.42;100.00;101403.31;5206591;28;20461;-72
2022/08/18 09:59:36;;;;;;;6.65;5.03;;;;;;;28.75;100.00;101401.97;5206316;28;20651;-72
2022/08/18 10:02:10;;;;;;;7.15;5.35;;;;;;;28.63;96.66;101398.66;5194309;28;20120;-72
2022/08/18 10:07:35;;;;;;;12.18;9.02;;;;;;;26.90;100.00;101394.91;5206068;28;19913;-72
2022/08/18 10:10:11;;;;;;;14.13;6.93;;;;;;;26.58;100.00;101396.53;5206125;28;20103;-72
2022/08/18 10:13:14;;;;;;;13.60;6.40;;;;;;;27.16;100.00;101393.22;5206899;28;20026;-72
2022/08/18 10:16:21;;;;;;;9.88;7.20;;;;;;;27.01;100.00;101382.88;5205911;28;20033;-72
2022/08/18 10:19:26;;;;;;;15.80;8.93;;;;;;;26.89;100.00;101390.50;5206254;28;20029;-72
2022/08/18 10:21:57;;;;;;;8.90;6.22;;;;;;;26.83;100.00;101373.94;5196694;28;20039;-72
2022/08/18 10:24:34;;;;;;;11.52;7.50;;;;;;;27.04;100.00;101380.44;5205756;28;20022;-72
2022/08/18 10:27:08;;;;;;;13.23;6.95;;;;;;;27.28;100.00;101386.44;5205231;28;20029;-72
2022/08/18 10:29:39;;;;;;;10.48;7.50;;;;;;;27.01;100.00;101380.97;5205513;28;20167;-72
2022/08/18 10:32:11;;;;;;;13.80;8.68;;;;;;;26.46;100.00;101378.53;5205993;28;20033;-72
2022/08/18 10:34:47;;;;;;;10.43;8.15;;;;;;;26.13;100.00;101371.25;5204978;28;20483;-72
2022/08/18 10:37:39;;;;;;;9.18;7.22;;;;;;;26.05;100.00;101373.34;5205822;28;20041;-72
2022/08/18 10:40:11;;;;;;;9.13;6.93;;;;;;;26.22;100.00;101364.22;5205770;28;20083;-72
2022/08/18 10:42:49;;;;;;;8.77;6.57;;;;;;;26.11;100.00;101359.69;5206086;28;20026;-72
2022/08/18 10:45:35;;;;;;;11.05;7.53;;;;;;;26.08;100.00;101367.34;5205091;28;20052;-72
2022/08/18 10:48:18;;;;;;;11.88;7.72;;;;;;;26.61;100.00;101370.44;5205685;28;20029;-72
2022/08/18 10:51:14;;;;;;;8.85;7.15;;;;;;;27.10;100.00;101371.16;5205685;28;20059;-72
2022/08/18 10:54:07;;;;;;;8.50;6.72;;;;;;;27.16;100.00;101366.53;5205335;28;20029;-72
2022/08/18 10:56:53;;;;;;;10.68;8.20;;;;;;;27.62;100.00;101375.09;5205360;28;20036;-72
2022/08/18 10:59:51;;;;;;;9.88;7.05;;;;;;;28.09;100.00;101361.25;5205565;28;20368;-72
2022/08/18 11:02:57;;;;;;;8.68;6.03;;;;;;;28.32;99.86;101365.44;5194999;28;20554;-72
2022/08/18 11:05:27;;;;;;;10.93;6.72;;;;;;;28.01;100.00;101356.25;5193771;28;20356;-72
2022/08/18 11:08:03;;;;;;;9.10;7.07;;;;;;;27.66;100.00;101356.88;5205197;28;20067;-72
2022/08/18 11:10:42;;;;;;;9.00;7.47;;;;;;;27.46;100.00;101360.38;5205694;28;20361;-72
2022/08/18 11:13:30;;;;;;;11.90;8.57;;;;;;;27.40;100.00;101352.34;5205296;28;20061;-72
2022/08/18 11:16:17;;;;;;;11.07;7.78;;;;;;;27.53;100.00;101355.47;5204560;28;20052;-72
2022/08/18 11:18:53;;;;;;;8.45;7.45;;;;;;;27.48;100.00;101349.09;5205151;28;20041;-73
2022/08/18 11:21:46;;;;;;;9.02;7.20;;;;;;;27.67;100.00;101341.22;5204895;28;20391;-72
2022/08/18 11:24:34;;;;;;;16.75;7.55;;;;;;;27.59;100.00;101345.28;5204433;28;20021;-72
2022/08/18 11:27:20;;;;;;;8.50;6.63;;;;;;;27.73;100.00;101342.91;5204631;28;20025;-72
2022/08/18 11:29:51;;;;;;;11.95;6.93;;;;;;;27.85;100.00;101341.56;5204819;28;20021;-72
2022/08/18 11:32:28;;;;;;;6.97;5.82;;;;;;;28.22;100.00;101342.53;5204731;28;20022;-73
2022/08/18 11:35:04;;;;;;;10.48;6.60;;;;;;;28.43;100.00;101329.63;5203586;28;20112;-73
2022/08/18 11:37:52;;;;;;;11.27;6.30;;;;;;;28.17;99.88;101325.97;5191713;28;20562;-73
2022/08/18 11:40:40;;;;;;;10.55;6.95;;;;;;;27.80;100.00;101326.94;5203195;28;20033;-72
2022/08/18 11:43:17;;;;;;;10.48;7.75;;;;;;;27.95;100.00;101331.69;5205071;28;20029;-73
2022/08/18 11:46:10;;;;;;;10.32;7.90;;;;;;;27.88;100.00;101313.47;5191633;28;20025;-73
2022/08/18 11:48:40;;;;;;;11.85;8.02;;;;;;;27.66;100.00;101317.47;5204718;28;20044;-73
2022/08/18 11:51:31;;;;;;;9.50;7.95;;;;;;;27.79;100.00;101326.13;5204390;28;20029;-73
2022/08/18 11:54:20;;;;;;;11.90;8.15;;;;;;;27.97;100.00;101330.34;5200405;28;20483;-73
2022/08/18 11:56:51;;;;;;;10.05;8.43;;;;;;;27.80;100.00;101321.44;5204418;28;20017;-73
2022/08/18 11:59:40;;;;;;;12.95;8.85;;;;;;;27.87;100.00;101322.84;5203223;28;20345;-73
2022/08/18 12:02:16;;;;;;;9.98;8.18;;;;;;;27.81;100.00;101321.19;5192825;28;20036;-73
2022/08/18 12:04:51;;;;;;;14.25;7.80;;;;;;;27.92;100.00;101335.81;5203457;28;20013;-73
2022/08/18 12:07:41;;;;;;;8.15;7.32;;;;;;;27.96;99.14;101327.81;5204303;28;20033;-73
2022/08/18 12:10:30;;;;;;;10.00;6.72;;;;;;;28.03;96.49;101320.97;5204307;28;20026;-73
2022/08/18 12:13:01;;;;;;;12.02;9.40;;;;;;;27.58;100.00;101329.84;5204373;28;20037;-73